Date,TemperatureHighF,TemperatureAvgF,TemperatureLowF,DewpointHighF,DewpointAvgF,DewpointLowF,HumidityHigh,HumidityAvg,HumidityLow,PressureMaxIn,PressureMinIn,WindSpeedMaxMPH,WindSpeedAvgMPH,GustSpeedMaxMPH,PrecipitationSumIn
2013-1-1,9.0,0.5,-6.2,5.0,-4.2,-11.0,83,80,77,30.36,30.29,5,3,0,0.00
2013-1-2,17.0,0.9,-6.7,1.0,-7.8,-13.0,79,68,50,30.74,30.58,7,3,0,0.00
2013-1-3,29.9,8.0,-8.9,1.0,-7.9,-14.0,78,52,27,30.80,30.67,9,4,0,0.00
2013-1-4,40.6,12.6,-7.6,11.0,-3.0,-15.0,74,54,27,30.79,30.43,12,4,0,0.00
2013-1-5,40.5,16.6,-1.2,9.0,0.8,-8.0,80,55,22,30.68,30.44,14,4,0,0.00
2013-1-6,49.3,21.9,-3.1,11.0,1.7,-8.0,82,47,19,30.67,30.28,10,4,0,0.00
2013-1-7,42.0,22.3,3.4,11.0,3.6,-4.0,73,47,26,30.28,30.05,15,4,0,0.00
2013-1-8,47.4,23.6,6.1,17.0,6.5,-4.0,73,52,27,30.52,30.13,12,4,0,0.00
2013-1-9,49.2,23.3,6.7,15.0,8.7,1.0,79,59,24,30.53,30.37,6,3,0,0.00
2013-1-10,49.1,24.7,2.8,16.0,6.4,-3.0,82,51,16,30.37,29.75,37,6,0,0.00
2013-1-11,34.7,21.8,-0.6,20.0,3.2,-12.0,62,45,29,29.94,29.34,38,10,0,0.00
2013-1-12,20.5,4.4,-10.4,0.0,-9.2,-19.0,78,56,24,30.37,29.94,16,5,0,0.00
2013-1-13,17.7,0.7,-18.4,0.0,-10.0,-25.0,80,64,30,30.54,30.37,14,4,0,0.00
2013-1-14,17.6,2.5,-14.9,4.0,-4.7,-21.0,81,73,49,30.52,30.33,12,3,0,0.00
2013-1-15,26.3,8.2,-17.6,9.0,-5.5,-24.0,77,56,34,30.73,30.51,9,3,0,0.00
2013-1-16,45.0,25.1,9.8,18.0,10.8,2.0,82,57,32,30.64,30.39,11,4,0,0.00
2013-1-17,45.2,21.8,3.8,19.0,10.3,-1.0,85,65,34,30.75,30.56,9,4,0,0.00
2013-1-18,48.5,26.4,6.6,13.0,8.0,1.0,82,51,20,30.57,30.33,17,6,0,0.00
2013-1-19,47.9,27.8,10.1,13.0,6.2,1.0,67,44,23,30.44,30.37,12,5,0,0.00
2013-1-20,49.9,26.4,8.9,9.0,3.1,-5.0,73,42,15,30.46,30.31,15,5,0,0.00
2013-1-21,50.4,27.7,3.7,13.0,5.9,-3.0,77,45,20,30.46,30.31,17,5,0,0.00
2013-1-22,57.4,30.7,9.9,5.0,-0.2,-4.0,58,32,9,30.40,30.21,21,6,0,0.00
2013-1-23,61.1,42.8,10.5,8.0,2.0,-5.0,50,21,8,30.45,30.33,10,4,0,0.00
2013-1-24,39.5,27.3,21.3,23.0,10.6,1.0,73,50,37,30.33,30.13,7,3,0,0.00
2013-1-25,52.2,36.6,22.2,29.0,23.8,17.0,85,62,39,30.23,30.09,15,4,0,0.00
2013-1-26,51.4,37.7,24.6,36.0,27.2,18.0,90,69,41,30.12,29.70,6,2,0,0.03
2013-1-27,50.3,38.9,25.6,29.0,24.3,16.0,90,59,36,29.77,29.66,23,6,0,0.00
2013-1-28,46.6,32.9,21.3,35.0,22.0,7.0,85,66,36,29.74,29.53,27,7,0,0.01
2013-1-29,28.4,21.9,15.5,18.0,10.5,-5.0,82,64,27,29.97,29.63,15,5,0,0.00
2013-1-30,36.0,23.4,-0.2,7.0,2.6,-9.0,73,43,28,30.24,30.14,24,8,0,0.00
2013-1-31,44.1,29.9,11.2,12.0,8.2,2.0,69,43,25,30.27,30.19,24,6,0,0.00
2013-2-1,45.5,32.3,15.2,13.0,9.9,5.0,71,42,25,30.25,30.11,31,9,0,0.00
2013-2-2,50.0,35.0,4.1,12.0,6.2,-1.0,79,34,16,30.50,30.39,19,6,0,0.00
2013-2-3,48.0,30.9,10.2,13.0,7.1,1.0,70,41,17,30.45,30.06,17,5,0,0.00
2013-2-4,50.0,32.5,10.8,8.0,5.1,1.0,68,36,16,30.12,29.97,21,6,0,0.00
2013-2-5,54.8,32.2,13.0,15.0,8.6,1.0,65,40,17,30.14,29.96,14,5,0,0.00
2013-2-6,52.3,33.8,12.7,27.0,12.8,4.0,81,46,21,30.05,29.90,17,6,0,0.00
2013-2-7,46.5,30.1,11.3,28.0,17.8,3.0,90,66,18,30.20,30.05,13,4,0,0.00
2013-2-8,47.8,29.8,11.0,19.0,13.1,6.0,85,55,26,30.19,29.89,22,7,0,0.00
2013-2-9,41.1,33.2,26.5,18.0,10.5,5.0,57,40,22,29.68,29.38,23,10,0,0.00
2013-2-10,37.5,25.2,16.7,17.0,6.9,0.0,84,49,23,30.07,29.54,18,7,0,0.00
2013-2-11,21.3,12.6,-5.2,14.0,7.5,-10.0,85,80,72,30.34,30.08,11,3,0,0.19
2013-2-12,31.6,7.9,-12.2,12.0,-1.6,-17.0,83,68,36,30.54,30.35,10,4,0,0.00
2013-2-13,40.8,20.7,-1.9,14.0,7.4,-7.0,83,59,33,30.50,30.22,13,4,0,0.00
2013-2-14,42.3,20.6,2.9,20.0,9.8,-2.0,83,66,27,30.47,30.19,16,5,0,0.00
2013-2-15,38.6,21.0,-0.2,12.0,4.6,-5.0,84,55,24,30.54,30.43,16,5,0,0.00
2013-2-16,48.9,27.9,4.6,15.0,7.5,-2.0,76,46,23,30.54,30.20,22,5,0,0.00
2013-2-17,49.8,34.9,18.0,11.0,5.1,0.0,54,31,14,30.20,29.67,20,8,0,0.00
2013-2-18,37.5,26.8,8.5,16.0,4.9,-4.0,79,44,19,30.20,29.68,22,7,0,0.00
2013-2-19,46.5,22.2,3.1,12.0,4.2,-2.0,80,50,15,30.25,29.95,15,5,0,0.00
2013-2-20,35.2,23.0,12.6,22.0,12.6,-99.9,88,69,41,29.95,29.66,16,4,0,0.25
2013-2-21,33.5,21.2,10.9,24.0,16.7,7.0,88,83,64,30.01,29.68,15,4,0,0.05
2013-2-22,32.7,17.7,5.6,21.0,12.6,2.0,88,81,57,30.18,30.00,15,4,0,0.00
2013-2-23,42.4,23.4,-0.8,22.0,10.5,-5.0,87,61,36,30.16,29.82,16,5,0,0.00
2013-2-24,34.0,21.5,15.7,24.0,15.5,7.0,89,78,62,30.19,29.72,15,6,0,0.12
2013-2-25,40.2,18.3,1.9,17.0,6.3,-3.0,84,63,29,30.31,30.08,14,5,0,0.00
2013-2-26,28.7,17.9,3.7,20.0,11.2,0.0,85,76,52,30.34,29.94,13,4,0,0.07
2013-2-27,35.0,13.0,-12.0,12.0,1.5,-17.0,85,64,28,30.62,30.35,13,4,0,0.00
2013-2-28,42.5,19.7,-2.7,10.0,3.1,-8.0,82,54,24,30.64,30.44,13,5,0,0.00
2013-3-1,47.8,31.8,13.6,18.0,13.8,6.0,80,50,29,30.53,30.34,21,6,0,0.00
2013-3-2,55.0,36.3,17.8,26.0,20.6,12.0,81,56,27,30.46,30.16,16,4,0,0.00
2013-3-3,54.1,42.4,28.8,23.0,20.0,16.0,76,43,26,30.15,29.66,33,8,0,0.00
2013-3-4,49.0,33.7,18.9,29.0,22.2,16.0,89,66,30,30.20,29.62,23,7,0,0.06
2013-3-5,53.9,26.4,1.6,23.0,12.7,-2.0,87,64,15,30.45,30.20,14,3,0,0.00
2013-3-6,56.8,40.7,20.7,21.0,16.7,11.0,84,42,23,30.31,29.86,22,6,0,0.00
2013-3-7,59.6,45.0,28.7,17.0,13.3,9.0,60,31,15,29.88,29.76,18,5,0,0.00
2013-3-8,52.1,38.8,24.9,27.0,20.2,15.0,75,49,29,29.85,29.59,21,6,0,0.00
2013-3-9,35.0,28.9,22.4,27.0,19.4,11.0,86,68,57,30.10,29.52,25,8,0,0.07
2013-3-10,43.0,26.2,2.1,16.0,10.6,-3.0,85,55,28,30.26,30.10,15,5,0,0.00
2013-3-11,51.8,35.9,22.4,18.0,14.8,12.0,67,45,25,30.25,29.95,24,6,0,0.00
2013-3-12,39.0,28.6,22.5,28.0,23.4,19.0,90,81,64,30.40,30.09,18,6,0,0.00
2013-3-13,59.4,41.4,22.8,24.0,19.9,16.0,86,47,24,30.45,30.26,26,6,0,0.00
2013-3-14,65.4,45.6,25.5,22.0,18.1,15.0,68,38,17,30.36,30.15,14,4,0,0.00
2013-3-15,64.2,46.2,27.1,24.0,17.2,12.0,69,37,14,30.16,29.83,26,8,0,0.00
2013-3-16,51.1,38.7,27.5,33.0,25.5,16.0,87,61,42,29.89,29.76,17,5,0,0.01
2013-3-17,50.6,36.8,20.5,30.0,20.8,13.0,91,58,26,29.85,29.57,35,10,0,0.00
2013-3-18,42.7,33.0,25.4,15.0,9.2,4.0,47,38,23,29.90,29.83,20,9,0,0.00
2013-3-19,47.1,37.0,15.4,14.0,9.1,4.0,60,33,20,30.25,29.99,17,7,0,0.00
2013-3-20,53.9,34.5,9.5,23.0,12.2,2.0,77,45,20,30.31,29.87,30,8,0,0.00
2013-3-21,50.8,40.7,25.7,27.0,19.4,6.0,79,44,27,29.86,29.45,31,10,0,0.00
2013-3-22,45.1,32.8,24.5,26.0,20.9,12.0,89,64,27,29.78,29.59,17,5,0,0.00
2013-3-23,28.4,18.0,10.8,18.0,11.6,3.0,85,76,60,30.36,29.74,24,9,0,0.19
2013-3-24,29.7,9.9,-14.2,14.0,1.4,-20.0,86,71,34,30.54,30.35,20,5,0,0.00
2013-3-25,34.4,17.4,0.5,15.0,6.3,-5.0,85,64,36,30.55,30.43,19,5,0,0.00
2013-3-26,54.6,31.3,8.4,20.0,13.3,4.0,85,54,24,30.51,30.08,20,5,0,0.00
2013-3-27,56.9,38.7,21.3,28.0,21.0,15.0,78,53,22,30.12,29.96,18,6,0,0.00
2013-3-28,61.1,41.1,22.7,27.0,22.0,17.0,86,53,20,30.12,30.02,15,4,0,0.00
2013-3-29,63.0,43.3,23.1,27.0,21.8,18.0,85,49,19,30.15,29.99,22,5,0,0.00
2013-3-30,60.7,44.3,24.7,30.0,22.0,17.0,79,46,22,30.12,29.94,28,6,0,0.00
2013-3-31,64.9,47.9,34.4,31.0,22.3,13.0,86,46,15,30.09,29.83,19,7,0,0.00
2013-4-1,53.6,39.0,23.1,29.0,22.0,12.0,83,53,33,30.04,29.79,21,8,0,0.00
2013-4-2,42.0,31.4,26.5,29.0,25.6,22.0,90,79,60,30.16,30.00,18,6,0,0.05
2013-4-3,54.3,36.1,26.0,34.0,28.4,23.0,91,76,38,30.23,30.10,15,4,0,0.02
2013-4-4,65.1,43.2,20.4,27.0,20.4,13.0,90,50,15,30.29,30.04,13,4,0,0.00
2013-4-5,65.8,47.4,27.2,29.0,21.3,13.0,68,41,15,30.04,29.65,24,8,0,0.00
2013-4-6,61.6,47.0,24.7,29.0,22.6,12.0,80,44,15,29.82,29.70,18,4,0,0.00
2013-4-7,57.8,47.2,28.2,24.0,21.4,17.0,73,38,24,29.75,29.57,29,8,0,0.00
2013-4-8,63.2,46.6,27.3,27.0,21.4,17.0,70,41,18,29.64,29.27,33,7,0,0.00
2013-4-9,47.0,27.5,12.6,26.0,17.4,8.0,82,68,44,30.05,29.37,15,8,0,0.02
2013-4-10,38.1,25.9,12.3,16.0,13.5,8.0,85,62,39,30.28,30.11,17,8,0,0.00
2013-4-11,53.1,35.5,10.6,28.0,18.8,6.0,86,56,29,30.14,29.88,19,7,0,0.00
2013-4-12,54.7,36.9,17.6,29.0,22.0,14.0,88,60,25,29.99,29.86,20,5,0,0.00
2013-4-13,61.7,47.5,27.0,30.0,21.1,13.0,91,44,17,29.99,29.32,30,12,0,0.00
2013-4-14,50.7,42.0,33.1,35.0,23.1,13.0,91,52,25,29.61,29.30,29,10,0,0.10
2013-4-15,48.4,35.3,25.7,20.0,15.2,6.0,75,46,31,29.84,29.55,18,10,0,0.00
2013-4-16,40.3,29.7,22.7,24.0,20.4,16.0,83,69,53,29.93,29.74,24,11,0,0.00
2013-4-17,28.6,24.0,14.3,25.0,21.1,11.0,91,88,83,30.15,29.83,18,8,0,0.48
2013-4-18,32.3,21.3,10.9,22.0,14.6,8.0,88,76,58,30.43,30.16,17,4,0,0.11
2013-4-19,47.5,31.4,7.3,21.0,12.8,1.0,78,49,30,30.43,30.10,18,6,0,0.00
2013-4-20,51.9,38.4,28.1,31.0,23.9,18.0,84,58,35,30.09,29.86,13,4,0,0.00
2013-4-21,57.7,41.3,25.2,30.0,22.2,13.0,90,54,18,30.12,29.95,17,5,0,0.00
2013-4-22,62.9,39.8,21.8,31.0,23.9,19.0,88,58,21,30.06,29.70,24,8,0,0.00
2013-4-23,27.7,20.8,15.9,20.0,16.5,12.0,88,83,73,30.43,30.03,14,7,0,0.12
2013-4-24,51.7,31.7,12.7,23.0,16.5,9.0,86,59,24,30.44,30.29,16,5,0,0.00
2013-4-25,62.1,43.6,24.7,33.0,24.3,19.0,82,52,23,30.33,29.85,15,5,0,0.00
2013-4-26,60.1,46.6,31.4,31.0,26.4,20.0,79,49,24,30.20,29.91,22,5,0,0.00
2013-4-27,67.4,47.9,25.6,31.0,21.4,14.0,88,44,14,30.20,29.97,16,4,0,0.00
2013-4-28,71.2,47.5,26.7,23.0,19.2,15.0,63,38,14,30.03,29.75,17,6,0,0.00
2013-4-29,73.4,55.4,29.6,28.0,22.8,18.0,70,33,15,29.81,29.52,35,7,0,0.00
2013-4-30,72.6,54.4,39.7,27.0,21.6,18.0,48,30,17,29.52,29.43,19,5,0,0.00
2013-5-1,43.7,31.5,21.8,33.0,26.1,19.0,89,81,65,30.56,29.60,18,6,0,0.21
2013-5-2,41.1,28.6,19.7,26.0,20.9,17.0,88,74,49,30.80,30.57,12,4,0,0.02
2013-5-3,61.9,47.9,26.7,23.0,19.7,16.0,79,35,20,30.49,30.08,14,5,0,0.00
2013-5-4,55.0,42.5,21.7,25.0,21.6,17.0,83,46,32,30.16,29.97,19,7,0,0.00
2013-5-5,52.0,39.1,25.3,22.0,19.1,16.0,75,46,30,30.16,30.04,14,5,0,0.00
2013-5-6,55.6,41.8,30.8,39.0,28.3,-99.9,90,62,41,30.14,29.89,14,4,0,0.12
2013-5-7,63.7,47.0,35.1,39.0,32.6,26.0,89,62,25,29.95,29.80,15,5,0,0.00
2013-5-8,52.3,41.8,34.5,39.0,33.5,-99.9,91,76,53,30.02,29.86,16,4,0,0.17
2013-5-9,40.6,36.9,33.7,37.0,32.9,-99.9,92,88,80,30.25,29.99,10,2,0,0.63
2013-5-10,53.3,41.5,30.2,41.0,34.8,28.0,93,79,48,30.32,30.20,15,4,0,0.06
2013-5-11,63.9,45.2,29.8,38.0,34.3,28.0,93,69,36,30.40,30.21,17,4,0,0.00
2013-5-12,69.7,52.0,32.2,39.0,33.7,29.0,91,56,27,30.25,30.03,13,4,0,0.00
2013-5-13,75.9,55.0,34.0,43.0,35.4,29.0,85,53,22,30.14,29.97,22,5,0,0.00
2013-5-14,75.5,56.2,37.8,43.0,37.8,33.0,83,54,23,29.97,29.78,20,5,0,0.01
2013-5-15,72.3,55.4,40.3,43.0,39.7,36.0,87,59,28,29.85,29.72,16,4,0,0.00
2013-5-16,75.3,57.6,39.1,42.0,35.9,29.0,90,52,19,29.78,29.63,20,6,0,0.00
2013-5-17,77.2,57.9,37.3,38.0,26.4,15.0,85,39,11,29.75,29.62,23,7,0,0.00
2013-5-18,67.1,52.7,36.2,32.0,24.7,17.0,54,35,23,29.72,29.60,14,5,0,0.00
2013-5-19,61.5,49.3,33.2,31.0,25.8,22.0,76,43,24,29.77,29.62,29,8,0,0.00
2013-5-20,60.1,44.7,29.1,37.0,29.3,22.0,84,57,31,29.95,29.77,17,5,0,0.00
2013-5-21,68.5,48.9,30.1,30.0,27.9,22.0,91,53,19,29.96,29.78,17,4,0,0.00
2013-5-22,74.7,54.1,29.0,36.0,30.3,25.0,85,46,19,29.85,29.67,18,6,0,0.00
2013-5-23,57.5,49.2,42.1,42.0,39.0,33.0,81,69,40,29.90,29.80,13,7,0,0.00
2013-5-24,77.6,59.0,37.7,46.0,28.9,16.0,93,44,12,29.95,29.76,29,8,0,0.00
2013-5-25,80.4,60.2,34.3,26.0,19.3,16.0,51,24,10,29.86,29.68,29,8,0,0.00
2013-5-26,80.2,62.1,34.8,26.0,18.9,15.0,50,22,10,29.76,29.58,19,6,0,0.00
2013-5-27,75.3,60.5,35.8,26.0,20.5,15.0,43,23,13,29.67,29.45,24,7,0,0.00
2013-5-28,73.7,56.1,31.6,26.0,17.9,10.0,57,27,11,29.63,29.41,26,8,0,0.00
2013-5-29,66.3,55.3,45.3,31.0,23.9,15.0,49,31,20,29.54,29.32,22,8,0,0.00
2013-5-30,65.8,53.6,32.8,24.0,19.9,16.0,56,29,17,29.72,29.53,29,11,0,0.00
2013-5-31,66.4,54.7,39.3,25.0,17.9,10.0,49,26,11,29.87,29.66,29,11,0,0.00
2013-6-1,67.2,50.1,27.8,31.0,20.8,8.0,59,33,22,30.09,29.88,16,5,0,0.00
2013-6-2,80.8,57.3,27.8,35.0,26.6,22.0,81,39,13,30.09,29.72,17,5,0,0.00
2013-6-3,80.5,60.1,39.7,34.0,28.8,21.0,50,33,16,29.72,29.52,26,8,0,0.00
2013-6-4,82.0,57.1,37.6,36.0,29.5,24.0,59,38,17,29.73,29.66,18,5,0,0.00
2013-6-5,56.9,49.9,45.8,45.0,43.1,42.0,90,78,62,30.02,29.77,21,10,0,0.00
2013-6-6,73.7,57.5,35.3,43.0,37.6,30.0,91,54,22,30.03,29.85,17,5,0,0.00
2013-6-7,71.5,52.9,35.4,46.0,36.5,-99.9,85,59,31,29.92,29.74,21,4,0,0.04
2013-6-8,80.8,60.0,38.4,44.0,38.4,34.0,86,51,20,29.81,29.62,19,7,0,0.00
2013-6-9,86.1,60.9,34.6,43.0,34.8,27.0,89,46,16,29.86,29.71,14,4,0,0.00
2013-6-10,92.0,68.3,38.9,34.0,30.1,25.0,61,29,12,29.81,29.60,19,6,0,0.00
2013-6-11,89.2,72.3,46.6,32.0,25.2,15.0,45,21,7,29.66,29.48,33,11,0,0.00
2013-6-12,87.4,69.3,42.5,33.0,26.3,17.0,37,21,12,29.80,29.66,19,6,0,0.00
2013-6-13,86.6,62.1,44.7,34.0,28.0,25.0,48,30,14,29.80,29.70,13,4,0,0.00
2013-6-14,86.6,71.3,57.1,43.0,38.8,34.0,55,33,16,29.66,29.53,19,8,0,0.00
2013-6-15,83.2,64.6,38.7,41.0,34.1,25.0,85,40,13,29.81,29.65,16,6,0,0.00
2013-6-16,81.2,62.4,44.7,45.0,38.0,33.0,69,44,19,29.89,29.72,24,5,0,0.00
2013-6-17,82.4,63.5,48.3,44.0,38.0,27.0,68,42,14,29.92,29.75,22,7,0,0.00
2013-6-18,79.5,62.3,46.6,45.0,40.6,31.0,81,49,19,29.91,29.65,43,7,0,0.00
2013-6-19,87.1,65.0,35.9,46.0,28.1,11.0,91,40,7,29.75,29.53,27,8,0,0.00
2013-6-20,83.6,66.4,42.4,22.0,14.6,8.0,25,15,7,29.65,29.54,26,8,0,0.00
2013-6-21,85.9,64.7,39.3,26.0,18.8,10.0,31,18,10,29.70,29.56,26,7,0,0.00
2013-6-22,83.6,66.5,42.2,28.0,21.9,15.0,38,20,10,29.67,29.48,20,7,0,0.00
2013-6-23,77.3,65.7,40.2,46.0,36.0,12.0,52,34,22,29.69,29.56,19,8,0,0.00
2013-6-24,82.4,65.7,41.3,48.0,28.1,16.0,81,33,10,29.70,29.54,29,9,0,0.00
2013-6-25,87.3,70.0,44.7,34.0,26.0,15.0,32,20,14,29.72,29.57,19,7,0,0.00
2013-6-26,92.2,71.1,45.7,39.0,32.8,26.0,47,27,13,29.82,29.68,15,5,0,0.00
2013-6-27,91.8,73.5,49.6,49.0,35.7,28.0,50,28,14,29.93,29.75,16,6,0,0.00
2013-6-28,92.3,70.2,54.8,50.0,45.8,39.0,70,45,17,29.93,29.72,33,6,0,0.31
2013-6-29,82.2,75.0,61.7,50.0,47.7,46.0,59,39,28,29.89,29.84,18,8,0,0.00
2013-6-30,55.7,50.8,46.0,49.0,46.8,44.0,93,87,75,29.99,29.98,4,2,0,0.00
2013-7-1,71.3,59.1,48.6,52.0,48.9,47.0,93,71,44,30.06,30.00,23,5,0,0.01
2013-7-2,77.1,60.6,45.3,51.0,45.5,41.0,93,63,28,30.05,29.88,18,6,0,0.01
2013-7-3,60.2,46.2,40.4,48.0,42.4,38.0,93,87,63,29.94,29.89,10,3,0,0.00
2013-7-4,84.1,65.5,43.1,49.0,42.2,39.0,91,50,21,29.83,29.68,20,6,0,0.00
2013-7-5,84.4,62.0,48.3,55.0,46.8,39.0,89,61,25,29.71,29.52,13,5,0,0.09
2013-7-6,83.4,63.7,48.1,53.0,50.0,46.0,92,66,28,29.78,29.64,13,3,0,0.06
2013-7-7,86.6,65.5,53.6,54.0,50.1,46.0,88,63,25,29.82,29.70,19,4,0,0.14
2013-7-8,86.4,72.6,54.1,53.0,46.0,40.0,85,45,21,29.85,29.74,13,3,0,0.00
2013-7-9,86.4,77.9,61.5,52.0,44.1,40.0,70,32,20,29.90,29.79,18,6,0,0.01
2013-7-10,88.1,66.7,51.0,56.0,49.2,43.0,88,57,25,29.90,29.74,18,5,0,0.04
2013-7-11,92.2,69.4,54.2,54.0,51.5,44.0,90,58,19,29.88,29.62,16,4,0,0.00
2013-7-12,89.8,65.9,55.2,58.0,49.2,-99.9,87,61,22,29.73,29.57,27,5,0,0.14
2013-7-13,89.1,68.5,52.9,59.0,53.5,47.0,91,63,24,29.79,29.69,19,3,0,0.10
2013-7-14,79.5,62.7,51.5,58.0,52.8,48.0,91,73,38,29.94,29.77,23,5,0,0.23
2013-7-15,62.7,56.9,52.3,57.0,54.1,49.0,93,90,81,29.99,29.88,13,4,0,0.24
2013-7-16,69.3,58.8,42.9,53.0,48.1,41.0,94,70,49,30.08,29.98,17,5,0,0.08
2013-7-17,72.9,65.7,61.4,49.0,47.7,47.0,63,53,41,29.94,29.91,9,5,0,0.00
2013-7-18,82.6,63.8,47.9,54.0,48.3,-99.9,91,65,32,29.94,29.73,21,6,0,0.08
2013-7-19,76.2,61.0,48.2,57.0,51.6,46.0,93,74,40,29.91,29.83,20,4,0,0.05
2013-7-20,82.6,64.7,46.5,55.0,49.8,45.0,94,63,32,29.91,29.68,17,5,0,0.00
2013-7-21,89.4,69.8,54.1,53.0,46.0,35.0,88,50,16,29.77,29.58,23,6,0,0.00
2013-7-22,89.8,67.8,50.5,47.0,42.3,37.0,71,44,18,29.75,29.65,19,5,0,0.00
2013-7-23,90.5,69.5,46.6,50.0,40.1,30.0,75,41,13,29.82,29.70,19,6,0,0.00
2013-7-24,73.4,64.0,56.6,56.0,51.9,47.0,86,66,43,29.87,29.75,13,4,0,0.15
2013-7-25,82.0,61.1,48.1,56.0,51.1,46.0,93,73,31,30.01,29.83,18,5,0,0.45
2013-7-26,71.2,55.0,46.1,56.0,49.3,44.0,94,82,52,30.06,29.99,12,2,0,0.00
2013-7-27,84.9,62.6,48.0,57.0,49.8,41.0,91,68,22,30.00,29.70,18,4,0,0.39
2013-7-28,73.1,61.7,54.2,56.0,53.7,51.0,93,77,49,29.81,29.65,14,4,0,0.04
2013-7-29,82.2,64.1,53.7,55.0,50.4,46.0,92,66,29,29.91,29.70,17,5,0,0.00
2013-7-30,84.3,65.0,46.7,50.0,44.3,40.0,88,54,23,30.01,29.91,21,4,0,0.00
2013-7-31,86.3,62.4,45.8,47.0,42.8,35.0,82,56,18,30.05,29.91,14,4,0,0.00
2013-8-1,82.5,69.2,53.4,54.0,50.0,45.0,91,54,30,29.88,29.74,18,6,0,0.05
2013-8-2,86.6,66.2,54.4,55.0,49.6,44.0,88,60,23,29.82,29.67,16,5,0,0.21
2013-8-3,78.4,63.7,55.5,59.0,52.6,46.0,89,70,33,29.98,29.79,13,4,0,0.06
2013-8-4,83.2,64.1,50.1,56.0,52.0,47.0,94,70,30,29.97,29.79,14,4,0,0.17
2013-8-5,83.3,64.8,53.4,55.0,51.1,42.0,88,65,27,29.91,29.76,11,4,0,0.00
2013-8-6,83.0,61.7,51.0,54.0,49.9,42.0,90,70,28,29.86,29.72,20,4,0,0.10
2013-8-7,66.9,55.5,46.8,55.0,50.6,44.0,92,84,62,29.90,29.82,12,2,0,0.14
2013-8-8,66.4,51.2,45.8,51.0,46.6,44.0,93,85,55,30.03,29.85,10,2,0,0.00
2013-8-9,73.1,56.1,41.6,53.0,45.7,39.0,92,71,40,30.10,29.96,22,4,0,0.12
2013-8-10,79.2,60.5,44.6,52.0,44.9,39.0,93,62,24,30.10,29.90,20,4,0,0.00
2013-8-11,76.3,59.9,48.2,52.0,44.7,41.0,87,61,32,30.01,29.85,16,5,0,0.10
2013-8-12,77.8,59.4,48.7,54.0,48.2,45.0,88,69,35,30.00,29.87,15,3,0,0.24
2013-8-13,79.5,58.5,45.0,56.0,47.9,41.0,94,71,32,30.02,29.92,15,5,0,0.12
2013-8-14,75.7,58.9,42.3,55.0,47.0,40.0,93,68,33,30.03,29.88,16,4,0,0.00
2013-8-15,83.9,61.2,41.8,48.0,42.5,33.0,91,58,18,30.00,29.86,15,3,0,0.00
2013-8-16,84.2,62.2,42.3,45.0,41.1,35.0,88,53,19,29.98,29.88,16,4,0,0.00
2013-8-17,86.4,66.1,42.3,51.0,39.2,33.0,81,44,15,29.98,29.80,14,5,0,0.00
2013-8-18,86.6,64.3,43.9,49.0,44.2,39.0,91,54,19,29.92,29.76,19,5,0,0.03
2013-8-19,83.2,65.3,44.7,47.0,42.2,39.0,84,48,22,29.93,29.80,15,5,0,0.00
2013-8-20,85.5,67.7,44.3,47.0,40.3,34.0,81,43,18,29.86,29.71,16,5,0,0.00
2013-8-21,84.9,66.5,47.3,49.0,44.2,38.0,71,48,24,29.88,29.77,14,4,0,0.00
2013-8-22,82.1,65.1,50.8,60.0,49.1,42.0,89,60,32,29.94,29.76,23,6,0,0.10
2013-8-23,79.6,63.5,50.9,59.0,52.4,45.0,93,71,36,29.93,29.68,14,4,0,0.24
2013-8-24,81.8,64.1,48.1,51.0,46.8,43.0,85,57,29,29.86,29.76,12,4,0,0.00
2013-8-25,82.3,66.4,52.0,52.0,49.7,48.0,85,58,34,29.89,29.80,16,4,0,0.00
2013-8-26,86.7,68.0,50.8,52.0,49.0,47.0,86,55,26,29.91,29.76,13,4,0,0.00
2013-8-27,84.5,66.5,48.6,52.0,47.9,45.0,86,55,30,29.86,29.75,20,4,0,0.00
2013-8-28,86.2,66.1,45.0,50.0,42.5,33.0,87,49,16,29.88,29.78,15,4,0,0.00
2013-8-29,89.7,67.5,45.9,49.0,42.3,37.0,76,44,22,29.93,29.80,14,4,0,0.00
2013-8-30,86.0,69.9,53.5,49.0,44.9,41.0,73,44,24,29.91,29.76,13,3,0,0.00
2013-8-31,87.1,64.2,54.2,57.0,49.6,44.0,87,62,26,29.85,29.70,13,3,0,0.17
2013-9-1,76.5,63.3,53.6,59.0,54.8,51.0,91,75,46,29.93,29.83,15,4,0,0.05
2013-9-2,84.0,62.2,49.1,62.0,52.8,47.0,94,74,32,29.91,29.80,14,3,0,0.09
2013-9-3,85.5,63.7,52.4,60.0,51.9,48.0,90,69,30,29.93,29.84,16,3,0,0.15
2013-9-4,83.8,66.8,52.2,56.0,50.9,48.0,88,60,31,29.96,29.88,15,3,0,0.00
2013-9-5,85.2,66.2,48.4,51.0,46.3,40.0,90,55,23,29.98,29.84,12,4,0,0.00
2013-9-6,85.8,66.8,46.9,46.0,42.1,39.0,80,47,20,29.96,29.78,15,5,0,0.00
2013-9-7,83.9,65.8,44.6,46.0,41.9,39.0,82,48,22,29.88,29.74,16,5,0,0.00
2013-9-8,84.5,73.2,53.8,46.0,42.5,40.0,60,35,22,29.75,29.58,13,6,0,0.00
2013-9-9,78.7,64.0,48.6,58.0,45.1,40.0,75,53,33,29.69,29.55,12,4,0,0.07
2013-9-10,66.1,57.6,51.1,54.0,51.9,48.0,93,82,58,29.93,29.69,16,4,0,1.10
2013-9-11,63.2,57.6,54.5,56.0,54.5,52.0,93,89,77,29.97,29.91,15,4,0,0.03
2013-9-12,66.4,57.6,54.9,56.0,54.1,53.0,94,88,66,30.01,29.95,12,3,0,0.00
2013-9-13,62.0,54.3,48.0,54.0,51.1,45.0,94,89,63,29.89,29.72,5,1,0,0.19
2013-9-14,72.0,57.3,45.5,53.0,46.7,43.0,92,71,41,29.80,29.66,14,3,0,0.00
2013-9-15,65.7,52.6,42.0,55.0,47.3,40.0,94,83,58,30.08,29.80,14,4,0,0.50
2013-9-16,71.8,56.9,50.1,55.0,50.8,48.0,94,82,45,30.08,29.88,16,4,0,0.06
2013-9-17,76.9,62.3,51.1,52.0,46.5,41.0,94,62,30,29.93,29.67,11,3,0,0.00
2013-9-18,74.7,59.1,49.2,49.0,45.9,43.0,89,65,34,29.75,29.60,26,6,0,0.04
2013-9-19,69.9,56.1,41.3,47.0,43.8,39.0,91,66,37,29.95,29.71,21,5,0,0.00
2013-9-20,68.5,55.7,45.6,50.0,46.7,42.0,94,74,50,29.96,29.82,15,6,0,0.00
2013-9-21,70.1,48.5,39.9,49.0,42.0,38.0,94,81,35,29.91,29.85,17,3,0,0.00
2013-9-22,65.0,54.3,44.4,50.0,44.6,38.0,91,72,49,29.63,29.38,20,5,0,0.35
2013-9-23,59.8,48.9,38.8,38.0,31.2,27.0,80,54,31,29.99,29.42,24,7,0,0.00
2013-9-24,74.7,50.3,31.2,37.0,30.5,23.0,84,53,15,30.11,29.85,14,4,0,0.00
2013-9-25,74.0,60.0,38.2,35.0,31.2,27.0,76,37,19,29.84,29.41,31,8,0,0.00
2013-9-26,75.0,63.2,47.6,32.0,25.9,20.0,42,25,16,29.45,29.37,33,9,0,0.00
2013-9-27,64.0,53.8,38.4,42.0,31.2,20.0,62,43,33,29.81,29.39,35,14,0,0.00
2013-9-28,66.4,44.8,23.5,26.0,20.9,16.0,77,44,17,30.14,29.82,19,4,0,0.00
2013-9-29,69.1,49.8,26.4,28.0,23.0,20.0,78,41,18,30.14,29.89,22,6,0,0.00
2013-9-30,75.5,58.6,36.1,35.0,28.2,20.0,59,33,22,29.88,29.63,24,6,0,0.00
2013-10-1,71.5,53.2,32.9,37.0,30.6,24.0,71,45,26,29.89,29.73,16,4,0,0.00
2013-10-2,74.2,51.2,31.4,33.0,25.5,20.0,83,45,14,29.92,29.73,11,4,0,0.00
2013-10-3,73.6,55.2,33.5,30.0,23.8,20.0,59,33,15,29.76,29.48,24,7,0,0.00
2013-10-4,56.5,43.3,28.7,41.0,17.4,6.0,85,38,18,30.07,29.43,23,9,0,0.00
2013-10-5,60.4,40.9,29.6,18.0,10.2,2.0,48,31,10,30.25,30.07,18,7,0,0.00
2013-10-6,69.3,44.4,24.9,27.0,15.7,9.0,50,33,19,30.32,30.16,15,5,0,0.00
2013-10-7,77.1,47.6,24.1,29.0,21.3,13.0,69,41,14,30.26,29.95,11,4,0,0.00
2013-10-8,70.7,52.9,36.7,26.0,22.8,20.0,53,33,17,29.95,29.64,17,5,0,0.00
2013-10-9,69.6,52.5,35.3,31.0,24.2,19.0,61,36,17,29.78,29.66,18,4,0,0.00
2013-10-10,63.2,45.7,32.4,38.0,31.1,24.0,86,60,29,29.76,29.43,32,11,0,0.07
2013-10-11,55.6,45.0,36.8,31.0,25.3,22.0,71,47,34,29.99,29.58,31,10,0,0.00
2013-10-12,52.1,38.9,21.7,36.0,29.5,19.0,91,71,52,30.17,29.99,17,5,0,0.00
2013-10-13,56.8,42.2,27.7,42.0,31.5,23.0,90,69,43,30.19,29.93,16,5,0,0.08
2013-10-14,55.4,45.5,33.7,39.0,25.7,20.0,91,49,28,30.00,29.77,31,10,0,0.00
2013-10-15,35.3,31.7,28.4,31.0,27.2,24.0,89,83,75,30.27,30.00,14,5,0,0.04
2013-10-16,48.1,33.6,21.7,34.0,25.9,19.0,91,76,38,30.26,30.07,17,4,0,0.00
2013-10-17,54.2,35.2,17.6,27.0,19.0,14.0,86,58,21,30.22,29.98,19,4,0,0.00
2013-10-18,43.4,30.5,19.7,29.0,23.8,16.0,89,77,50,30.30,30.01,19,4,0,0.02
2013-10-19,58.1,37.9,15.8,23.0,17.6,11.0,88,51,22,30.33,30.03,18,6,0,0.00
2013-10-20,58.3,40.6,24.2,32.0,22.4,15.0,86,52,23,30.06,29.82,14,4,0,0.00
2013-10-21,55.4,36.3,23.8,35.0,26.8,21.0,92,73,27,30.29,30.07,13,4,0,0.11
2013-10-22,63.0,38.9,19.4,29.0,23.0,16.0,88,59,25,30.36,30.18,14,4,0,0.00
2013-10-23,66.5,40.7,20.7,29.0,22.0,17.0,86,55,17,30.25,30.11,12,4,0,0.00
2013-10-24,64.1,39.3,23.3,33.0,26.4,19.0,87,64,26,30.28,30.12,20,6,0,0.00
2013-10-25,61.7,43.3,23.8,35.0,28.2,21.0,90,61,28,30.28,30.11,15,5,0,0.00
2013-10-26,58.6,42.2,26.5,35.0,29.4,21.0,90,64,32,30.27,30.14,14,4,0,0.00
2013-10-27,60.0,41.0,24.4,29.0,24.7,20.0,87,58,28,30.20,29.88,18,5,0,0.00
2013-10-28,58.4,40.6,30.5,31.0,26.5,21.0,88,61,27,29.92,29.75,23,8,0,0.00
2013-10-29,55.2,42.1,24.5,36.0,23.9,19.0,89,55,24,29.93,29.78,30,9,0,0.05
2013-10-30,48.8,36.1,22.7,33.0,21.6,17.0,90,59,29,29.87,29.73,17,6,0,0.00
2013-10-31,50.6,34.3,17.9,19.0,16.6,12.0,78,52,28,30.04,29.87,23,6,0,0.00
2013-11-1,53.0,33.7,18.8,24.0,18.8,13.0,84,58,27,30.34,30.02,15,5,0,0.00
2013-11-2,64.0,37.4,15.7,20.0,13.3,8.0,86,47,11,30.37,29.94,15,4,0,0.00
2013-11-3,58.2,47.4,32.3,24.0,19.1,13.0,46,33,26,29.93,29.49,25,9,0,0.00
2013-11-4,39.5,29.0,22.9,26.0,20.7,13.0,91,72,44,30.03,29.65,18,6,0,0.04
2013-11-5,35.5,25.1,8.8,30.0,21.7,5.0,90,86,78,30.35,29.97,13,3,0,0.10
2013-11-6,44.9,25.3,4.9,19.0,11.3,1.0,87,60,30,30.62,30.36,26,5,0,0.00
2013-11-7,57.6,33.7,12.8,23.0,16.7,9.0,84,56,24,30.64,30.20,12,4,0,0.00
2013-11-8,58.7,44.2,26.2,20.0,16.9,14.0,71,37,21,30.20,29.86,33,8,0,0.00
2013-11-9,60.3,38.0,20.5,25.0,20.2,14.0,79,53,21,30.29,30.01,14,4,0,0.00
2013-11-10,62.0,37.6,17.2,25.0,18.2,14.0,87,54,19,30.38,30.23,15,4,0,0.00
2013-11-11,61.0,37.6,19.1,27.0,19.1,12.0,89,55,20,30.57,30.29,19,5,0,0.00
2013-11-12,53.7,32.4,22.4,29.0,23.6,17.0,91,73,32,30.66,30.55,15,4,0,0.00
2013-11-13,58.0,38.3,18.2,21.0,16.8,12.0,84,48,21,30.59,30.09,17,6,0,0.00
2013-11-14,55.5,39.5,23.6,28.0,21.0,15.0,87,51,24,30.09,29.82,14,5,0,0.00
2013-11-15,51.7,39.1,20.9,32.0,21.4,13.0,91,54,29,29.82,29.53,29,8,0,0.03
2013-11-16,47.3,38.6,31.1,31.0,23.4,17.0,91,58,33,29.53,29.36,36,12,0,0.05
2013-11-17,50.5,36.8,19.3,28.0,19.8,14.0,85,54,29,30.15,29.53,27,7,0,0.00
2013-11-18,57.5,31.5,13.5,21.0,14.3,9.0,86,56,18,30.32,30.15,12,4,0,0.00
2013-11-19,52.7,39.2,24.4,22.0,18.2,13.0,69,45,27,30.20,29.82,22,6,0,0.00
2013-11-20,53.8,38.9,22.0,28.0,21.0,15.0,80,52,29,29.89,29.75,14,4,0,0.00
2013-11-21,37.9,22.7,10.1,31.0,19.2,7.0,90,86,71,30.64,29.84,15,6,0,0.00
2013-11-22,23.0,17.3,11.2,21.0,14.4,8.0,90,88,86,30.81,30.65,0,0,0,0.36
2013-11-23,25.4,22.8,19.3,21.0,18.3,15.0,90,83,71,30.80,30.58,0,0,0,0.00
2013-11-24,31.1,29.0,24.2,28.0,25.4,20.0,92,86,77,30.35,30.12,13,1,0,0.22
2013-11-25,35.1,27.2,7.9,24.0,19.4,5.0,88,73,61,30.44,30.12,22,7,0,0.05
2013-11-26,25.3,8.5,1.0,16.0,3.9,-3.0,85,82,69,30.72,30.66,6,3,0,0.00
2013-11-27,44.0,20.1,1.4,23.0,11.8,-3.0,88,73,43,30.71,30.43,12,4,0,0.00
2013-11-28,45.0,21.5,7.8,23.0,13.0,4.0,89,73,37,30.52,30.39,7,3,0,0.00
2013-11-29,47.9,27.9,10.4,19.0,13.3,7.0,89,59,28,30.48,30.37,20,5,0,0.00
2013-11-30,46.1,26.9,5.6,20.0,11.9,1.0,85,57,30,30.47,30.34,17,5,0,0.00
2013-12-1,45.9,28.1,7.8,20.0,13.2,3.0,85,57,33,30.41,30.14,19,5,0,0.00
2013-12-2,49.6,40.4,25.7,22.0,19.2,16.0,68,44,33,30.15,29.61,33,11,0,0.00
2013-12-3,47.4,38.8,18.9,25.0,19.2,16.0,87,47,37,29.61,29.37,25,9,0,0.00
2013-12-4,18.4,6.3,-2.6,16.0,2.4,-7.0,88,84,80,30.35,29.44,24,10,0,0.13
2013-12-5,8.4,-7.0,-23.2,4.0,-12.1,-29.0,83,78,72,30.64,30.36,13,5,0,0.00
2013-12-6,13.7,-7.4,-23.8,9.0,-12.6,-30.0,81,77,72,30.81,30.64,13,3,0,0.00
2013-12-7,16.0,-0.2,-16.2,11.0,-5.2,-22.0,83,79,74,30.80,30.19,11,2,0,0.00
2013-12-8,23.1,11.3,-2.6,13.0,-1.3,-13.0,87,61,28,30.28,30.07,26,6,0,0.00
2013-12-9,18.8,4.7,-12.5,1.0,-9.0,-19.0,82,57,32,30.70,30.28,24,6,0,0.00
2013-12-10,35.7,23.5,-4.1,10.0,1.8,-14.0,63,40,31,30.72,30.31,30,8,0,0.00
2013-12-11,39.7,18.6,-0.2,14.0,4.9,-5.0,83,59,28,30.69,30.39,18,4,0,0.00
2013-12-12,47.8,27.5,14.0,15.0,5.5,0.0,55,41,21,30.68,30.14,12,4,0,0.00
2013-12-13,48.4,28.5,15.4,15.0,9.2,4.0,74,46,23,30.23,29.93,12,4,0,0.00
2013-12-14,38.9,21.5,2.4,16.0,8.2,-2.0,84,59,32,30.53,30.24,13,4,0,0.00
2013-12-15,48.8,30.5,12.5,21.0,13.5,5.0,77,52,30,30.51,30.35,20,6,0,0.00
2013-12-16,51.5,30.2,9.8,22.0,12.8,4.0,78,53,27,30.48,30.30,16,5,0,0.00
2013-12-17,53.3,29.6,11.1,22.0,14.2,6.0,80,57,24,30.56,30.37,14,5,0,0.00
2013-12-18,55.0,36.6,17.0,18.0,13.5,9.0,73,43,18,30.35,29.80,19,5,0,0.00
2013-12-19,48.4,37.7,21.9,20.0,17.4,16.0,84,46,29,29.78,29.51,24,8,0,0.00
2013-12-20,43.2,27.5,18.0,24.0,18.8,13.0,89,72,38,29.75,29.64,13,3,0,0.00
2013-12-21,38.2,22.1,8.2,19.0,13.0,4.0,87,71,35,30.01,29.61,13,4,0,0.00
2013-12-22,31.9,19.2,1.8,15.0,7.5,-3.0,87,63,38,30.40,30.02,17,5,0,0.00
2013-12-23,38.5,29.7,12.5,15.0,10.8,4.0,71,47,31,30.51,30.40,18,6,0,0.00
2013-12-24,44.4,33.2,11.9,21.0,16.3,5.0,77,51,36,30.39,30.06,33,8,0,0.00
2013-12-25,37.4,20.5,6.7,11.0,4.9,-1.0,77,54,27,30.61,30.33,11,4,0,0.00
2013-12-26,46.6,25.4,9.1,14.0,7.0,1.0,73,50,25,30.61,30.46,10,3,0,0.00
2013-12-27,50.8,27.0,11.6,22.0,13.9,5.0,81,61,31,30.55,30.30,10,3,0,0.00
2013-12-28,49.7,31.8,15.8,29.0,17.9,11.0,82,60,32,30.30,29.96,13,4,0,0.00
2013-12-29,30.3,18.3,7.4,19.0,10.9,3.0,85,74,60,30.27,30.16,12,4,0,0.05
2013-12-30,43.0,24.3,9.2,16.0,10.1,3.0,83,58,29,30.50,30.27,8,3,0,0.00
2013-12-31,47.3,37.8,24.4,22.0,15.8,9.0,53,41,33,30.38,29.96,20,7,0,0.00
2014-1-1,42.7,33.0,17.8,26.0,16.7,7.0,85,55,25,30.30,29.87,16,6,0,0.01
2014-1-2,46.3,19.3,6.2,16.0,8.2,2.0,85,68,24,30.48,30.29,6,2,0,0.00